Sanbornville, New Hampshire
Current Conditions -  °F | °C
As of 5:55 AM on Thursday 23 Oct 2014 (Local Time) from KSFM Reporting Station
Overcast Overcast  
Wind Chill: 38°   Ceiling: 1000
Heat Index: 46°   Visibility: 8mi
Dew Point: 41°   Wind: 23mph
Humidity: 81%   Direction: 20°NNE
Pressure: 29.79"   Gusts: 28mph
Location:  43.55°N, 71.03°W
Report Text: KSFM 230955Z AUTO 02020G24KT 8SM BKN010 OVC016 08/05 A2979 RMK AO1 P0002
Loading
Personal Weather Stations






























Interactive Weather Map
Tropical Storm Tracking
New forecast layout! Learn more

10-Day Weather Forecast

Advertisements
Track Severe Weather on mobile